createdAt,value
2022-12-01T00:00:11.068Z,1.60
2022-12-01T00:01:13.856Z,1.60
2022-12-01T00:02:15.633Z,1.60
2022-12-01T00:03:17.567Z,1.60
2022-12-01T00:04:19.417Z,1.60
2022-12-01T00:05:21.138Z,1.60
2022-12-01T00:06:23.036Z,1.60
2022-12-01T00:07:25.097Z,1.60
2022-12-01T00:08:28.146Z,1.60
2022-12-01T00:09:48.862Z,1.50
2022-12-01T00:10:50.801Z,1.50
2022-12-01T00:11:52.524Z,1.60
2022-12-01T00:12:59.748Z,1.60
2022-12-01T00:14:01.602Z,1.60
2022-12-01T00:15:03.481Z,1.60
2022-12-01T00:16:19.717Z,1.60
2022-12-01T00:17:21.910Z,1.60
2022-12-01T00:18:23.702Z,1.50
2022-12-01T00:19:26.304Z,1.50
2022-12-01T00:20:28.983Z,1.50
2022-12-01T00:21:30.741Z,1.50
2022-12-01T00:22:32.481Z,1.50
2022-12-01T00:23:34.206Z,1.50
2022-12-01T00:24:36.022Z,1.50
2022-12-01T00:25:38.194Z,1.60
2022-12-01T00:26:40.174Z,1.50
2022-12-01T00:27:42.477Z,1.50
2022-12-01T00:28:44.292Z,1.50
2022-12-01T00:29:47.162Z,1.50
2022-12-01T00:30:49.305Z,1.50
2022-12-01T00:31:51.096Z,1.40
2022-12-01T00:32:52.832Z,1.40
2022-12-01T00:33:55.504Z,1.40
2022-12-01T00:34:57.381Z,1.40
2022-12-01T00:36:02.368Z,1.40
2022-12-01T00:37:04.968Z,1.40
2022-12-01T00:38:06.705Z,1.40
2022-12-01T00:39:09.583Z,1.40
2022-12-01T00:40:11.726Z,1.40
2022-12-01T00:41:13.792Z,1.40
2022-12-01T00:42:15.549Z,1.40
2022-12-01T00:43:17.266Z,1.40
2022-12-01T00:44:19.097Z,1.40
2022-12-01T00:45:20.789Z,1.40
2022-12-01T00:46:22.581Z,1.40
2022-12-01T00:47:24.544Z,1.40
2022-12-01T00:48:26.316Z,1.40
2022-12-01T00:49:28.121Z,1.40
2022-12-01T00:50:30.754Z,1.40
2022-12-01T00:51:32.892Z,1.30
2022-12-01T00:52:34.673Z,1.40
2022-12-01T00:53:36.400Z,1.40
2022-12-01T00:54:38.189Z,1.40
2022-12-01T00:55:40.437Z,1.40
2022-12-01T00:56:42.157Z,1.40
2022-12-01T00:57:44.013Z,1.40
2022-12-01T00:58:45.742Z,1.40
2022-12-01T00:59:47.665Z,1.40
2022-12-01T01:00:49.814Z,1.30
2022-12-01T01:01:52.462Z,1.40
2022-12-01T01:02:54.286Z,1.30
2022-12-01T01:03:56.097Z,1.40
2022-12-01T01:04:57.834Z,1.30
2022-12-01T01:06:08.800Z,1.30
2022-12-01T01:07:10.552Z,1.30
2022-12-01T01:08:14.896Z,1.30
2022-12-01T01:09:17.608Z,1.30
2022-12-01T01:10:19.309Z,1.20
2022-12-01T01:11:21.041Z,1.20
2022-12-01T01:12:22.878Z,1.20
2022-12-01T01:13:24.600Z,1.20
2022-12-01T01:14:26.383Z,1.20
2022-12-01T01:15:28.147Z,1.20
2022-12-01T01:16:30.444Z,1.10
2022-12-01T01:17:33.263Z,1.10
2022-12-01T01:18:35.121Z,1.10
2022-12-01T01:19:36.854Z,1.10
2022-12-01T01:20:38.590Z,1.10
2022-12-01T01:21:40.427Z,1.00
2022-12-01T01:22:42.121Z,1.00
2022-12-01T01:23:43.935Z,1.00
2022-12-01T01:24:45.666Z,1.00
2022-12-01T01:25:47.382Z,1.00
2022-12-01T01:26:49.318Z,1.00
2022-12-01T01:27:51.465Z,1.00
2022-12-01T01:28:56.017Z,1.00
2022-12-01T01:29:57.709Z,1.00
2022-12-01T01:30:59.629Z,1.10
2022-12-01T01:32:01.463Z,1.10
2022-12-01T01:33:03.192Z,1.00
2022-12-01T01:34:05.080Z,1.10
2022-12-01T01:35:07.389Z,1.10
2022-12-01T01:36:10.034Z,1.10
2022-12-01T01:37:11.931Z,1.10
2022-12-01T01:38:14.077Z,1.00
2022-12-01T01:39:16.089Z,1.00
2022-12-01T01:40:18.366Z,1.00
2022-12-01T01:41:21.453Z,1.00
2022-12-01T01:42:23.352Z,1.00
2022-12-01T01:44:01.808Z,1.00
2022-12-01T01:45:04.254Z,0.90
2022-12-01T01:46:06.855Z,0.90
2022-12-01T01:47:08.736Z,0.90
2022-12-01T01:48:13.409Z,0.90
2022-12-01T01:49:15.140Z,0.90
2022-12-01T01:50:20.531Z,1.00
2022-12-01T01:52:00.748Z,1.00
2022-12-01T01:53:12.390Z,1.00
2022-12-01T01:54:37.581Z,1.00
2022-12-01T01:55:39.643Z,0.90
2022-12-01T01:56:44.185Z,0.90
2022-12-01T01:57:49.211Z,0.90
2022-12-01T01:58:52.366Z,0.90
2022-12-01T02:00:07.963Z,0.90
2022-12-01T02:01:09.990Z,0.90
2022-12-01T02:02:13.068Z,0.90
2022-12-01T02:03:16.996Z,0.80
2022-12-01T02:04:20.551Z,0.80
2022-12-01T02:05:29.355Z,0.80
2022-12-01T02:06:31.329Z,0.80
2022-12-01T02:07:33.489Z,0.80
2022-12-01T02:08:37.952Z,0.80
2022-12-01T02:09:39.688Z,0.80
2022-12-01T02:10:53.134Z,0.80
2022-12-01T02:11:57.952Z,0.80
2022-12-01T02:13:31.987Z,0.80
2022-12-01T02:14:42.598Z,0.80
2022-12-01T02:15:57.453Z,0.90
2022-12-01T02:17:20.575Z,0.90
2022-12-01T02:18:50.326Z,1.00
2022-12-01T02:20:23.949Z,1.00
2022-12-01T02:21:54.304Z,1.00
2022-12-01T02:23:33.592Z,1.10
2022-12-01T02:25:07.418Z,1.10
2022-12-01T02:26:33.538Z,1.10
2022-12-01T02:28:12.786Z,1.10
2022-12-01T02:29:39.391Z,1.10
2022-12-01T02:30:47.769Z,1.10
2022-12-01T02:31:55.623Z,1.20
2022-12-01T02:33:23.741Z,1.20
2022-12-01T02:35:04.400Z,1.20
2022-12-01T02:36:06.109Z,1.10
2022-12-01T02:37:14.576Z,1.10
2022-12-01T02:38:33.042Z,1.00
2022-12-01T02:39:42.387Z,1.00
2022-12-01T02:41:20.562Z,0.90
2022-12-01T02:42:52.083Z,0.90
2022-12-01T02:44:04.925Z,0.80
2022-12-01T02:45:11.410Z,0.80
2022-12-01T02:46:20.715Z,0.80
2022-12-01T02:47:23.727Z,0.70
2022-12-01T02:48:32.536Z,0.80
2022-12-01T02:49:39.214Z,0.70
2022-12-01T02:50:41.708Z,0.70
2022-12-01T02:51:45.150Z,0.70
2022-12-01T02:52:47.611Z,0.70
2022-12-01T02:53:49.630Z,0.60
2022-12-01T02:54:53.195Z,0.60
2022-12-01T02:55:57.828Z,0.60
2022-12-01T02:56:59.828Z,0.60
2022-12-01T02:58:01.568Z,0.60
2022-12-01T02:59:11.018Z,0.60
2022-12-01T03:00:13.816Z,0.60
2022-12-01T03:01:38.050Z,0.50
2022-12-01T03:03:13.366Z,0.50
2022-12-01T03:04:53.506Z,0.50
2022-12-01T03:06:10.135Z,0.50
2022-12-01T03:07:33.148Z,0.50
2022-12-01T03:08:56.972Z,0.50
2022-12-01T03:10:24.187Z,0.50
2022-12-01T03:11:36.181Z,0.50
2022-12-01T03:12:50.003Z,0.60
2022-12-01T03:14:02.633Z,0.60
2022-12-01T03:15:25.413Z,0.70
2022-12-01T03:16:45.826Z,0.70
2022-12-01T03:17:59.377Z,0.80
2022-12-01T03:19:12.943Z,0.80
2022-12-01T03:20:23.947Z,0.90
2022-12-01T03:21:35.214Z,0.90
2022-12-01T03:22:56.579Z,0.90
2022-12-01T03:24:06.318Z,1.00
2022-12-01T03:25:09.426Z,1.00
2022-12-01T03:26:17.223Z,1.00
2022-12-01T03:27:22.787Z,1.00
2022-12-01T03:28:30.271Z,1.00
2022-12-01T03:29:38.652Z,1.00
2022-12-01T03:30:41.954Z,1.00
2022-12-01T03:31:53.047Z,1.00
2022-12-01T03:33:04.635Z,1.00
2022-12-01T03:35:01.831Z,1.00
2022-12-01T03:36:20.841Z,0.90
2022-12-01T03:37:32.280Z,1.00
2022-12-01T03:38:36.278Z,1.00
2022-12-01T03:39:40.066Z,0.90
2022-12-01T03:40:43.179Z,1.00
2022-12-01T03:41:55.547Z,1.00
2022-12-01T03:43:05.454Z,1.00
2022-12-01T03:44:20.298Z,1.00
2022-12-01T03:45:34.594Z,1.00
2022-12-01T03:46:46.191Z,1.00
2022-12-01T03:47:48.153Z,1.00
2022-12-01T03:48:52.818Z,1.00
2022-12-01T03:49:55.450Z,0.90
2022-12-01T03:51:09.385Z,0.90
2022-12-01T03:52:46.184Z,0.90
2022-12-01T03:53:53.112Z,0.90
2022-12-01T03:55:19.635Z,0.90
2022-12-01T03:56:25.146Z,0.90
2022-12-01T03:57:33.788Z,0.90
2022-12-01T03:58:41.535Z,0.90
2022-12-01T03:59:45.192Z,0.90
2022-12-01T04:00:49.967Z,0.90
2022-12-01T04:01:51.899Z,0.90
2022-12-01T04:02:58.305Z,0.80
2022-12-01T04:04:14.797Z,0.80
2022-12-01T04:05:19.941Z,0.70
2022-12-01T04:06:24.222Z,0.70
2022-12-01T04:07:25.951Z,0.70
2022-12-01T04:08:28.121Z,0.70
2022-12-01T04:09:29.982Z,0.70
2022-12-01T04:10:33.003Z,0.70
2022-12-01T04:11:53.385Z,0.70
2022-12-01T04:12:59.301Z,0.80
2022-12-01T04:14:01.060Z,0.80
2022-12-01T04:15:10.179Z,0.80
2022-12-01T04:16:11.960Z,0.80
2022-12-01T04:17:13.694Z,0.80
2022-12-01T04:18:15.633Z,0.80
2022-12-01T04:19:17.461Z,0.90
2022-12-01T04:20:19.491Z,0.90
2022-12-01T04:21:21.238Z,0.90
2022-12-01T04:22:23.690Z,0.90
2022-12-01T04:23:43.835Z,0.90
2022-12-01T04:24:46.024Z,0.90
2022-12-01T04:25:48.067Z,1.00
2022-12-01T04:26:49.796Z,1.00
2022-12-01T04:27:51.552Z,1.00
2022-12-01T04:28:53.274Z,1.10
2022-12-01T04:29:55.008Z,1.10
2022-12-01T04:30:56.767Z,1.10
2022-12-01T04:31:58.857Z,1.10
2022-12-01T04:33:00.662Z,1.20
2022-12-01T04:34:03.055Z,1.10
2022-12-01T04:35:05.284Z,1.10
2022-12-01T04:36:07.346Z,1.00
2022-12-01T04:37:09.943Z,1.00
2022-12-01T04:38:11.899Z,1.00
2022-12-01T04:39:13.668Z,1.00
2022-12-01T04:40:15.487Z,1.00
2022-12-01T04:41:17.338Z,1.00
2022-12-01T04:42:19.115Z,1.00
2022-12-01T04:43:20.858Z,1.00
2022-12-01T04:44:22.594Z,0.90
2022-12-01T04:45:24.319Z,0.90
2022-12-01T04:46:26.325Z,0.90
2022-12-01T04:47:28.123Z,0.90
2022-12-01T04:48:29.938Z,0.90
2022-12-01T04:49:33.763Z,0.90
2022-12-01T04:50:35.465Z,0.90
2022-12-01T04:51:37.248Z,0.90
2022-12-01T04:52:38.980Z,0.90
2022-12-01T04:53:40.730Z,0.90
2022-12-01T04:54:42.455Z,0.80
2022-12-01T04:55:44.177Z,0.80
2022-12-01T04:56:45.896Z,0.80
2022-12-01T04:57:47.598Z,0.80
2022-12-01T04:58:50.187Z,0.80
2022-12-01T04:59:52.211Z,0.80
2022-12-01T05:00:54.114Z,0.80
2022-12-01T05:01:55.955Z,0.80
2022-12-01T05:02:58.592Z,0.80
2022-12-01T05:04:00.356Z,0.80
2022-12-01T05:05:02.043Z,0.80
2022-12-01T05:06:06.364Z,0.80
2022-12-01T05:07:08.125Z,0.80
2022-12-01T05:08:10.356Z,0.80
2022-12-01T05:09:17.732Z,0.80
2022-12-01T05:10:19.870Z,0.80
2022-12-01T05:11:21.652Z,0.90
2022-12-01T05:12:23.375Z,0.80
2022-12-01T05:13:25.127Z,0.90
2022-12-01T05:14:26.889Z,0.90
2022-12-01T05:15:28.674Z,0.80
2022-12-01T05:16:32.445Z,0.80
2022-12-01T05:17:37.050Z,0.90
2022-12-01T05:18:39.968Z,0.90
2022-12-01T05:20:00.524Z,0.90
2022-12-01T05:21:04.039Z,0.90
2022-12-01T05:22:05.756Z,0.90
2022-12-01T05:23:09.712Z,0.90
2022-12-01T05:24:15.648Z,0.90
2022-12-01T05:25:17.473Z,0.90
2022-12-01T05:26:19.247Z,0.80
2022-12-01T05:27:20.965Z,0.80
2022-12-01T05:28:24.725Z,0.90
2022-12-01T05:29:26.455Z,0.90
2022-12-01T05:30:28.983Z,0.80
2022-12-01T05:31:31.475Z,0.80
2022-12-01T05:32:33.282Z,0.80
2022-12-01T05:33:35.037Z,0.80
2022-12-01T05:34:36.964Z,0.80
2022-12-01T05:35:38.758Z,0.80
2022-12-01T05:36:40.521Z,0.80
2022-12-01T05:37:42.256Z,0.80
2022-12-01T05:38:43.986Z,0.80
2022-12-01T05:39:45.789Z,0.80
2022-12-01T05:40:55.362Z,0.80
2022-12-01T05:41:57.224Z,0.90
2022-12-01T05:42:59.363Z,0.90
2022-12-01T05:44:01.085Z,0.80
2022-12-01T05:45:02.896Z,0.90
2022-12-01T05:46:04.886Z,0.90
2022-12-01T05:47:06.647Z,0.90
2022-12-01T05:48:09.384Z,0.90
2022-12-01T05:49:11.293Z,0.90
2022-12-01T05:50:13.241Z,0.90
2022-12-01T05:51:16.854Z,0.90
2022-12-01T05:52:18.584Z,0.80
2022-12-01T05:53:20.335Z,0.80
2022-12-01T05:54:22.180Z,0.90
2022-12-01T05:55:23.945Z,0.90
2022-12-01T05:56:25.800Z,0.90
2022-12-01T05:57:27.520Z,0.90
2022-12-01T05:58:29.228Z,1.00
2022-12-01T05:59:30.966Z,1.00
2022-12-01T06:00:33.283Z,1.00
2022-12-01T06:01:35.082Z,1.00
2022-12-01T06:02:36.826Z,1.00
2022-12-01T06:03:38.557Z,1.00
2022-12-01T06:04:40.328Z,1.10
2022-12-01T06:05:42.112Z,1.10
2022-12-01T06:06:43.921Z,1.10
2022-12-01T06:07:45.696Z,1.10
2022-12-01T06:08:47.732Z,1.10
2022-12-01T06:09:50.227Z,1.10
2022-12-01T06:10:52.194Z,1.10
2022-12-01T06:11:53.924Z,1.10
2022-12-01T06:12:55.712Z,1.10
2022-12-01T06:13:57.452Z,1.20
2022-12-01T06:14:59.218Z,1.10
2022-12-01T06:16:05.832Z,1.10
2022-12-01T06:17:07.610Z,1.10
2022-12-01T06:18:09.429Z,1.10
2022-12-01T06:19:11.190Z,1.10
2022-12-01T06:20:13.169Z,1.00
2022-12-01T06:21:14.886Z,1.00
2022-12-01T06:22:16.653Z,1.00
2022-12-01T06:23:18.464Z,1.00
2022-12-01T06:24:20.184Z,1.00
2022-12-01T06:25:21.911Z,0.90
2022-12-01T06:26:23.613Z,0.90
2022-12-01T06:27:25.352Z,0.90
2022-12-01T06:28:27.126Z,0.90
2022-12-01T06:29:28.854Z,0.90
2022-12-01T06:30:30.654Z,0.90
2022-12-01T06:31:32.513Z,0.90
2022-12-01T06:32:34.370Z,0.90
2022-12-01T06:33:36.158Z,0.90
2022-12-01T06:34:37.879Z,0.80
2022-12-01T06:35:39.636Z,0.80
2022-12-01T06:36:41.348Z,0.80
2022-12-01T06:37:43.046Z,0.90
2022-12-01T06:38:45.103Z,0.90
2022-12-01T06:39:47.065Z,0.90
2022-12-01T06:40:48.996Z,0.90
2022-12-01T06:41:50.777Z,0.90
2022-12-01T06:42:52.522Z,0.80
2022-12-01T06:43:54.806Z,0.80
2022-12-01T06:44:56.533Z,0.90
2022-12-01T06:46:02.065Z,0.90
2022-12-01T06:47:04.349Z,0.80
2022-12-01T06:48:06.842Z,0.90
2022-12-01T06:49:12.344Z,0.90
2022-12-01T06:50:14.212Z,0.90
2022-12-01T06:51:15.938Z,0.90
2022-12-01T06:52:17.669Z,0.90
2022-12-01T06:53:19.373Z,0.90
2022-12-01T06:54:21.479Z,0.90
2022-12-01T06:55:23.265Z,0.90
2022-12-01T06:56:25.807Z,0.90
2022-12-01T06:57:27.900Z,0.90
2022-12-01T06:58:30.453Z,0.80
2022-12-01T06:59:32.511Z,0.80
2022-12-01T07:00:34.621Z,0.80
2022-12-01T07:01:36.419Z,0.80
2022-12-01T07:02:39.099Z,0.80
2022-12-01T07:03:41.111Z,0.80
2022-12-01T07:04:43.013Z,0.80
2022-12-01T07:05:44.763Z,0.80
2022-12-01T07:06:46.501Z,0.80
2022-12-01T07:07:48.299Z,0.70
2022-12-01T07:08:50.036Z,0.70
2022-12-01T07:09:52.304Z,0.70
2022-12-01T07:11:05.761Z,0.70
2022-12-01T07:12:07.569Z,0.70
2022-12-01T07:13:09.261Z,0.70
2022-12-01T07:14:19.899Z,0.70
2022-12-01T07:15:21.584Z,0.70
2022-12-01T07:16:23.468Z,0.70
2022-12-01T07:17:25.285Z,0.70
2022-12-01T07:18:27.015Z,0.70
2022-12-01T07:19:28.776Z,0.70
2022-12-01T07:20:30.503Z,0.70
2022-12-01T07:21:32.245Z,0.80
2022-12-01T07:22:34.040Z,0.80
2022-12-01T07:23:36.129Z,0.80
2022-12-01T07:24:37.813Z,0.80
2022-12-01T07:25:39.561Z,0.80
2022-12-01T07:26:42.349Z,0.90
2022-12-01T07:27:44.067Z,0.90
2022-12-01T07:28:46.158Z,0.90
2022-12-01T07:29:48.397Z,0.90
2022-12-01T07:30:50.393Z,0.90
2022-12-01T07:31:52.213Z,0.90
2022-12-01T07:32:53.958Z,0.90
2022-12-01T07:33:55.699Z,0.90
2022-12-01T07:34:57.440Z,0.90
2022-12-01T07:35:59.823Z,0.90
2022-12-01T07:37:01.527Z,0.90
2022-12-01T07:38:03.287Z,0.80
2022-12-01T07:39:07.539Z,0.80
2022-12-01T07:40:10.387Z,0.80
2022-12-01T07:41:14.661Z,0.90
2022-12-01T07:42:16.397Z,0.80
2022-12-01T07:43:18.133Z,0.90
2022-12-01T07:44:19.877Z,0.90
2022-12-01T07:45:21.591Z,0.90
2022-12-01T07:46:25.812Z,0.90
2022-12-01T07:47:27.644Z,0.90
2022-12-01T07:48:30.162Z,0.90
2022-12-01T07:49:31.917Z,0.90
2022-12-01T07:50:33.633Z,1.00
2022-12-01T07:51:35.441Z,1.00
2022-12-01T07:52:37.150Z,1.00
2022-12-01T07:53:39.283Z,1.00
2022-12-01T07:54:40.998Z,0.90
2022-12-01T07:55:49.226Z,0.90
2022-12-01T07:56:50.948Z,0.90
2022-12-01T07:57:53.386Z,0.80
2022-12-01T07:58:55.179Z,0.80
2022-12-01T07:59:56.893Z,0.80
2022-12-01T08:00:58.820Z,0.80
2022-12-01T08:02:00.599Z,0.80
2022-12-01T08:03:02.476Z,0.80
2022-12-01T08:04:04.720Z,0.80
2022-12-01T08:05:06.736Z,0.80
2022-12-01T08:06:09.359Z,0.90
2022-12-01T08:07:11.062Z,0.80
2022-12-01T08:08:12.882Z,0.90
2022-12-01T08:09:14.681Z,0.90
2022-12-01T08:10:16.500Z,0.90
2022-12-01T08:11:21.174Z,1.00
2022-12-01T08:12:22.986Z,1.00
2022-12-01T08:13:24.718Z,1.00
2022-12-01T08:14:26.491Z,1.10
2022-12-01T08:15:28.425Z,1.00
2022-12-01T08:16:31.399Z,1.10
2022-12-01T08:17:33.122Z,1.10
2022-12-01T08:18:36.036Z,1.10
2022-12-01T08:19:37.789Z,1.10
2022-12-01T08:20:39.474Z,1.10
2022-12-01T08:21:41.257Z,1.20
2022-12-01T08:22:43.003Z,1.10
2022-12-01T08:23:44.832Z,1.20
2022-12-01T08:24:46.532Z,1.10
2022-12-01T08:25:48.284Z,1.20
2022-12-01T08:26:50.022Z,1.10
2022-12-01T08:27:51.728Z,1.10
2022-12-01T08:28:53.709Z,1.10
2022-12-01T08:29:55.403Z,1.10
2022-12-01T08:30:57.317Z,1.20
2022-12-01T08:31:59.218Z,1.10
2022-12-01T08:33:00.929Z,1.10
2022-12-01T08:34:05.633Z,1.10
2022-12-01T08:35:07.692Z,1.10
2022-12-01T08:36:09.947Z,1.10
2022-12-01T08:37:11.749Z,1.10
2022-12-01T08:38:13.474Z,1.10
2022-12-01T08:39:16.050Z,1.10
2022-12-01T08:40:17.861Z,1.10
2022-12-01T08:41:20.517Z,1.10
2022-12-01T08:42:22.223Z,1.10
2022-12-01T08:44:45.645Z,1.10
2022-12-01T08:45:47.662Z,1.10
2022-12-01T08:46:49.451Z,1.10
2022-12-01T08:47:52.896Z,1.10
2022-12-01T08:48:57.285Z,1.10
2022-12-01T08:49:59.177Z,1.10
2022-12-01T08:51:06.477Z,1.10
2022-12-01T08:52:08.239Z,1.10
2022-12-01T08:53:10.012Z,1.10
2022-12-01T08:54:12.611Z,1.10
2022-12-01T08:55:14.378Z,1.10
2022-12-01T08:56:22.463Z,1.20
2022-12-01T08:57:24.209Z,1.10
2022-12-01T08:58:26.140Z,1.20
2022-12-01T08:59:27.947Z,1.20
2022-12-01T09:00:29.820Z,1.20
2022-12-01T09:01:32.998Z,1.20
2022-12-01T09:02:35.114Z,1.30
2022-12-01T09:03:38.269Z,1.30
2022-12-01T09:04:39.994Z,1.30
2022-12-01T09:05:41.694Z,1.40
2022-12-01T09:06:46.243Z,1.40
2022-12-01T09:08:07.982Z,1.40
2022-12-01T09:09:16.386Z,1.40
2022-12-01T09:10:18.273Z,1.50
2022-12-01T09:11:20.050Z,1.50
2022-12-01T09:12:22.236Z,1.50
2022-12-01T09:13:23.977Z,1.50
2022-12-01T09:14:25.702Z,1.50
2022-12-01T09:15:27.493Z,1.50
2022-12-01T09:16:29.329Z,1.50
2022-12-01T09:17:31.153Z,1.60
2022-12-01T09:18:33.497Z,1.60
2022-12-01T09:19:36.007Z,1.50
2022-12-01T09:20:37.767Z,1.50
2022-12-01T09:21:40.116Z,1.50
2022-12-01T09:22:41.864Z,1.50
2022-12-01T09:23:44.330Z,1.50
2022-12-01T09:24:46.075Z,1.50
2022-12-01T09:25:48.878Z,1.50
2022-12-01T09:26:50.644Z,1.50
2022-12-01T09:27:52.353Z,1.50
2022-12-01T09:28:56.259Z,1.60
2022-12-01T09:29:57.973Z,1.60
2022-12-01T09:31:11.274Z,1.60
2022-12-01T09:32:13.150Z,1.60
2022-12-01T09:33:15.014Z,1.60
2022-12-01T09:34:19.643Z,1.60
2022-12-01T09:35:23.555Z,1.60
2022-12-01T09:36:26.147Z,1.60
2022-12-01T09:37:27.874Z,1.60
2022-12-01T09:38:30.676Z,1.60
2022-12-01T09:39:32.503Z,1.60
2022-12-01T09:40:40.885Z,1.60
2022-12-01T09:41:42.560Z,1.60
2022-12-01T09:42:47.383Z,1.60
2022-12-01T09:44:02.293Z,1.50
2022-12-01T09:45:05.118Z,1.50
2022-12-01T09:46:13.562Z,1.50
2022-12-01T09:47:19.557Z,1.50
2022-12-01T09:48:43.053Z,1.50
2022-12-01T09:49:53.683Z,1.50
2022-12-01T09:50:56.020Z,1.40
2022-12-01T09:52:00.167Z,1.40
2022-12-01T09:53:08.661Z,1.40
2022-12-01T09:54:14.068Z,1.40
2022-12-01T09:55:18.061Z,1.40
2022-12-01T09:56:23.786Z,1.40
2022-12-01T09:57:36.526Z,1.40
2022-12-01T09:58:38.720Z,1.40
2022-12-01T09:59:43.131Z,1.40
2022-12-01T10:00:46.155Z,1.40
2022-12-01T10:01:51.433Z,1.40
2022-12-01T10:02:59.712Z,1.30
2022-12-01T10:04:15.424Z,1.40
2022-12-01T10:05:21.052Z,1.30
2022-12-01T10:06:32.389Z,1.30
2022-12-01T10:07:39.919Z,1.40
2022-12-01T10:08:47.585Z,1.30
2022-12-01T10:09:55.380Z,1.40
2022-12-01T10:11:16.473Z,1.30
2022-12-01T10:12:27.736Z,1.30
2022-12-01T10:13:33.029Z,1.30
2022-12-01T10:14:37.053Z,1.30
2022-12-01T10:15:46.225Z,1.40
2022-12-01T10:17:11.938Z,1.30
2022-12-01T10:18:36.363Z,1.30
2022-12-01T10:20:10.005Z,1.30
2022-12-01T10:21:33.387Z,1.30
2022-12-01T10:22:57.060Z,1.30
2022-12-01T10:24:01.492Z,1.30
2022-12-01T10:25:22.103Z,1.30
2022-12-01T10:26:42.742Z,1.30
2022-12-01T10:28:31.914Z,1.30
2022-12-01T10:29:33.628Z,1.30
2022-12-01T10:30:40.372Z,1.30
2022-12-01T10:32:04.995Z,1.30
2022-12-01T10:33:17.695Z,1.40
2022-12-01T10:34:27.163Z,1.40
2022-12-01T10:35:36.049Z,1.40
2022-12-01T10:36:37.877Z,1.50
2022-12-01T10:37:40.135Z,1.50
2022-12-01T10:38:41.921Z,1.50
2022-12-01T10:39:46.610Z,1.50
2022-12-01T10:40:50.813Z,1.60
2022-12-01T10:41:53.047Z,1.60
2022-12-01T10:42:55.032Z,1.60
2022-12-01T10:44:03.112Z,1.60
2022-12-01T10:45:09.866Z,1.70
2022-12-01T10:46:49.009Z,1.70
2022-12-01T10:48:17.664Z,1.70
2022-12-01T10:49:20.352Z,1.70
2022-12-01T10:50:28.221Z,1.60
2022-12-01T10:51:30.023Z,1.60
2022-12-01T10:52:31.689Z,1.60
2022-12-01T10:53:36.548Z,1.60
2022-12-01T10:54:40.485Z,1.60
2022-12-01T10:55:47.741Z,1.60
2022-12-01T10:56:55.389Z,1.60
2022-12-01T10:58:03.499Z,1.70
2022-12-01T10:59:23.900Z,1.70
2022-12-01T11:02:02.122Z,1.70
2022-12-01T11:03:04.713Z,1.80
2022-12-01T11:04:31.743Z,1.80
2022-12-01T11:05:42.089Z,1.80
2022-12-01T11:06:50.288Z,1.80
2022-12-01T11:07:52.797Z,1.80
2022-12-01T11:09:06.532Z,1.80
2022-12-01T11:10:31.900Z,1.80
2022-12-01T11:11:40.559Z,1.80
2022-12-01T11:12:45.087Z,1.80
2022-12-01T11:13:46.867Z,1.80
2022-12-01T11:14:51.986Z,1.80
2022-12-01T11:15:56.290Z,1.80
2022-12-01T11:17:26.413Z,1.80
2022-12-01T11:18:29.384Z,1.80
2022-12-01T11:19:34.113Z,1.80
2022-12-01T11:20:38.800Z,1.80
2022-12-01T11:21:52.538Z,1.80
2022-12-01T11:23:20.924Z,1.80
2022-12-01T11:24:39.325Z,1.80
2022-12-01T11:25:41.354Z,1.90
2022-12-01T11:26:43.149Z,1.90
2022-12-01T11:27:50.474Z,1.90
2022-12-01T11:29:07.977Z,1.90
2022-12-01T11:30:27.320Z,1.90
2022-12-01T11:31:37.901Z,1.80
2022-12-01T11:32:40.346Z,1.80
2022-12-01T11:33:52.036Z,1.80
2022-12-01T11:34:59.702Z,1.80
2022-12-01T11:36:01.515Z,1.80
2022-12-01T11:37:16.954Z,1.80
2022-12-01T11:38:30.234Z,1.80
2022-12-01T11:39:39.294Z,1.90
2022-12-01T11:40:55.166Z,1.80
2022-12-01T11:42:00.247Z,1.80
2022-12-01T11:43:05.939Z,1.80
2022-12-01T11:45:41.038Z,1.80
2022-12-01T11:48:25.888Z,1.70
2022-12-01T11:49:30.074Z,1.60
2022-12-01T11:50:37.993Z,1.60
2022-12-01T11:51:39.751Z,1.50
2022-12-01T11:52:47.795Z,1.50
2022-12-01T11:53:49.745Z,1.50
2022-12-01T11:55:15.671Z,1.50
2022-12-01T11:56:30.122Z,1.50
2022-12-01T11:57:34.448Z,1.50
2022-12-01T11:59:24.978Z,1.50
2022-12-01T12:00:38.126Z,1.40
2022-12-01T12:01:53.960Z,1.40
2022-12-01T12:03:20.531Z,1.50
2022-12-01T12:04:41.277Z,1.50
2022-12-01T12:06:38.526Z,1.50
2022-12-01T12:07:44.364Z,1.50
2022-12-01T12:08:52.835Z,1.40
2022-12-01T12:10:27.580Z,1.40
2022-12-01T12:11:58.372Z,1.40
2022-12-01T12:13:15.176Z,1.40
2022-12-01T12:14:30.998Z,1.40
2022-12-01T12:15:54.137Z,1.40
2022-12-01T12:17:17.001Z,1.40
2022-12-01T12:18:43.772Z,1.40
2022-12-01T12:20:09.155Z,1.40
2022-12-01T12:21:26.403Z,1.30
2022-12-01T12:22:49.658Z,1.30
2022-12-01T12:24:18.176Z,1.40
2022-12-01T12:25:48.907Z,1.40
2022-12-01T12:27:10.832Z,1.40
2022-12-01T12:28:32.864Z,1.40
2022-12-01T12:29:40.355Z,1.30
2022-12-01T12:31:10.363Z,1.40
2022-12-01T12:32:36.484Z,1.30
2022-12-01T12:34:12.631Z,1.40
2022-12-01T12:35:53.318Z,1.30
2022-12-01T12:37:25.992Z,1.30
2022-12-01T12:38:57.804Z,1.30
2022-12-01T12:40:30.814Z,1.30
2022-12-01T12:41:39.171Z,1.40
2022-12-01T12:43:05.312Z,1.30
2022-12-01T12:44:17.914Z,1.30
2022-12-01T12:45:47.278Z,1.30
2022-12-01T12:46:52.052Z,1.30
2022-12-01T12:49:12.037Z,1.30
2022-12-01T12:50:34.270Z,1.30
2022-12-01T12:51:48.842Z,1.40
2022-12-01T12:52:59.495Z,1.40
2022-12-01T12:54:26.373Z,1.40
2022-12-01T12:55:37.048Z,1.40
2022-12-01T12:56:43.624Z,1.40
2022-12-01T12:57:48.437Z,1.30
2022-12-01T12:59:19.210Z,1.30
2022-12-01T13:00:26.990Z,1.30
2022-12-01T13:01:32.239Z,1.30
2022-12-01T13:03:04.679Z,1.30
2022-12-01T13:04:12.274Z,1.30
2022-12-01T13:05:30.876Z,1.30
2022-12-01T13:06:37.483Z,1.30
2022-12-01T13:08:03.206Z,1.40
2022-12-01T13:09:15.891Z,1.40
2022-12-01T13:10:33.008Z,1.40
2022-12-01T13:12:15.845Z,1.40
2022-12-01T13:13:37.683Z,1.40
2022-12-01T13:14:50.428Z,1.40
2022-12-01T13:15:55.334Z,1.40
2022-12-01T13:17:04.449Z,1.40
2022-12-01T13:18:16.224Z,1.40
2022-12-01T13:19:29.675Z,1.40
2022-12-01T13:20:33.770Z,1.40
2022-12-01T13:21:40.726Z,1.40
2022-12-01T13:22:43.097Z,1.40
2022-12-01T13:23:46.776Z,1.40
2022-12-01T13:24:48.543Z,1.40
2022-12-01T13:25:55.296Z,1.50
2022-12-01T13:27:01.046Z,1.40
2022-12-01T13:28:05.223Z,1.40
2022-12-01T13:29:14.329Z,1.40
2022-12-01T13:30:26.569Z,1.40
2022-12-01T13:31:28.342Z,1.30
2022-12-01T13:32:40.788Z,1.40
2022-12-01T13:34:02.578Z,1.30
2022-12-01T13:35:37.874Z,1.30
2022-12-01T13:36:49.480Z,1.30
2022-12-01T13:37:51.350Z,1.30
2022-12-01T13:39:00.009Z,1.30
2022-12-01T13:40:30.263Z,1.30
2022-12-01T13:41:39.723Z,1.30
2022-12-01T13:42:42.112Z,1.30
2022-12-01T13:43:58.907Z,1.30
2022-12-01T13:45:07.132Z,1.30
2022-12-01T13:46:24.520Z,1.30
2022-12-01T13:47:46.543Z,1.30
2022-12-01T13:48:48.200Z,1.30
2022-12-01T13:49:51.950Z,1.30
2022-12-01T13:51:02.413Z,1.30
2022-12-01T13:52:20.814Z,1.30
2022-12-01T13:53:30.910Z,1.30
2022-12-01T13:54:36.313Z,1.30
2022-12-01T13:55:55.850Z,1.30
2022-12-01T13:57:03.881Z,1.20
2022-12-01T13:58:08.632Z,1.20
2022-12-01T14:00:03.321Z,1.30
2022-12-01T14:01:20.491Z,1.30
2022-12-01T14:02:22.657Z,1.30
2022-12-01T14:03:37.663Z,1.30
2022-12-01T14:04:39.439Z,1.30
2022-12-01T14:05:44.759Z,1.30
2022-12-01T14:07:07.639Z,1.30
2022-12-01T14:08:30.265Z,1.30
2022-12-01T14:09:40.499Z,1.40
2022-12-01T14:10:54.105Z,1.30
2022-12-01T14:12:02.665Z,1.30
2022-12-01T14:13:06.458Z,1.30
2022-12-01T14:14:20.014Z,1.30
2022-12-01T14:15:42.273Z,1.30
2022-12-01T14:17:02.557Z,1.30
2022-12-01T14:18:07.654Z,1.30
2022-12-01T14:19:25.741Z,1.20
2022-12-01T14:20:28.634Z,1.20
2022-12-01T14:21:46.796Z,1.20
2022-12-01T14:23:05.276Z,1.30
2022-12-01T14:24:07.279Z,1.30
2022-12-01T14:25:26.807Z,1.30
2022-12-01T14:26:30.848Z,1.30
2022-12-01T14:27:33.435Z,1.30
2022-12-01T14:29:38.632Z,1.30
2022-12-01T14:30:45.505Z,1.30
2022-12-01T14:31:50.017Z,1.30
2022-12-01T14:32:51.744Z,1.30
2022-12-01T14:34:19.376Z,1.30
2022-12-01T14:35:21.332Z,1.20
2022-12-01T14:36:34.220Z,1.20
2022-12-01T14:37:39.995Z,1.20
2022-12-01T14:38:42.680Z,1.20
2022-12-01T14:40:05.831Z,1.20
2022-12-01T14:41:10.450Z,1.20
2022-12-01T14:42:40.701Z,1.20
2022-12-01T14:44:02.889Z,1.20
2022-12-01T14:45:07.445Z,1.20
2022-12-01T14:46:12.586Z,1.20
2022-12-01T14:47:23.586Z,1.20
2022-12-01T14:48:34.666Z,1.20
2022-12-01T14:50:11.818Z,1.20
2022-12-01T14:51:24.176Z,1.20
2022-12-01T14:52:28.621Z,1.20
2022-12-01T14:53:33.883Z,1.20
2022-12-01T14:54:49.826Z,1.20
2022-12-01T14:56:01.114Z,1.20
2022-12-01T14:57:07.536Z,1.20
2022-12-01T14:58:29.595Z,1.20
2022-12-01T14:59:31.359Z,1.20
2022-12-01T15:00:37.552Z,1.10
2022-12-01T15:01:39.497Z,1.10
2022-12-01T15:02:55.871Z,1.10
2022-12-01T15:04:00.297Z,1.10
2022-12-01T15:05:13.848Z,1.10
2022-12-01T15:06:24.769Z,1.10
2022-12-01T15:07:26.564Z,1.10